sensor_id;sensor_type;location;lat;lon;timestamp;P1;durP1;ratioP1;P2;durP2;ratioP2
72676;SDS011;60755;51.374;10.662;2023-08-06T00:01:49;3.20;;;2.90;;
72676;SDS011;60755;51.374;10.662;2023-08-06T00:04:16;2.95;;;2.85;;
72676;SDS011;60755;51.374;10.662;2023-08-06T00:06:43;2.90;;;2.70;;
72676;SDS011;60755;51.374;10.662;2023-08-06T00:09:10;2.90;;;2.70;;
72676;SDS011;60755;51.374;10.662;2023-08-06T00:11:38;2.92;;;2.83;;
72676;SDS011;60755;51.374;10.662;2023-08-06T00:14:06;3.10;;;3.00;;
72676;SDS011;60755;51.374;10.662;2023-08-06T00:16:33;2.70;;;2.60;;
72676;SDS011;60755;51.374;10.662;2023-08-06T00:19:00;2.97;;;2.50;;
72676;SDS011;60755;51.374;10.662;2023-08-06T00:21:28;3.00;;;2.80;;
72676;SDS011;60755;51.374;10.662;2023-08-06T00:23:55;4.18;;;2.70;;
72676;SDS011;60755;51.374;10.662;2023-08-06T00:26:22;2.55;;;2.40;;
72676;SDS011;60755;51.374;10.662;2023-08-06T00:28:50;2.53;;;2.33;;
72676;SDS011;60755;51.374;10.662;2023-08-06T00:31:17;2.42;;;2.33;;
72676;SDS011;60755;51.374;10.662;2023-08-06T00:33:44;2.78;;;2.60;;
72676;SDS011;60755;51.374;10.662;2023-08-06T00:36:11;2.53;;;2.30;;
72676;SDS011;60755;51.374;10.662;2023-08-06T00:38:38;3.28;;;2.67;;
72676;SDS011;60755;51.374;10.662;2023-08-06T00:41:05;2.85;;;2.70;;
72676;SDS011;60755;51.374;10.662;2023-08-06T00:43:32;2.70;;;2.60;;
72676;SDS011;60755;51.374;10.662;2023-08-06T00:46:00;2.58;;;2.38;;
72676;SDS011;60755;51.374;10.662;2023-08-06T00:48:29;4.65;;;2.75;;
72676;SDS011;60755;51.374;10.662;2023-08-06T00:50:56;2.85;;;2.53;;
72676;SDS011;60755;51.374;10.662;2023-08-06T00:53:23;2.90;;;2.65;;
72676;SDS011;60755;51.374;10.662;2023-08-06T00:55:50;5.20;;;2.97;;
72676;SDS011;60755;51.374;10.662;2023-08-06T00:58:18;3.25;;;2.95;;
72676;SDS011;60755;51.374;10.662;2023-08-06T01:00:45;2.92;;;2.72;;
72676;SDS011;60755;51.374;10.662;2023-08-06T01:03:15;3.75;;;2.50;;
72676;SDS011;60755;51.374;10.662;2023-08-06T01:05:42;2.70;;;2.60;;
72676;SDS011;60755;51.374;10.662;2023-08-06T01:08:12;2.85;;;2.65;;
72676;SDS011;60755;51.374;10.662;2023-08-06T01:10:49;3.08;;;2.78;;
72676;SDS011;60755;51.374;10.662;2023-08-06T01:13:28;2.70;;;2.50;;
72676;SDS011;60755;51.374;10.662;2023-08-06T01:16:03;2.72;;;2.47;;
72676;SDS011;60755;51.374;10.662;2023-08-06T01:18:33;5.45;;;2.60;;
72676;SDS011;60755;51.374;10.662;2023-08-06T01:21:05;4.73;;;2.90;;
72676;SDS011;60755;51.374;10.662;2023-08-06T01:23:32;3.03;;;2.93;;
72676;SDS011;60755;51.374;10.662;2023-08-06T01:26:02;3.20;;;2.90;;
72676;SDS011;60755;51.374;10.662;2023-08-06T01:28:38;4.22;;;2.92;;
72676;SDS011;60755;51.374;10.662;2023-08-06T01:31:11;3.13;;;2.80;;
72676;SDS011;60755;51.374;10.662;2023-08-06T01:33:45;2.90;;;2.70;;
72676;SDS011;60755;51.374;10.662;2023-08-06T01:36:16;3.27;;;3.07;;
72676;SDS011;60755;51.374;10.662;2023-08-06T01:38:45;5.07;;;3.50;;
72676;SDS011;60755;51.374;10.662;2023-08-06T01:41:12;2.97;;;2.78;;
72676;SDS011;60755;51.374;10.662;2023-08-06T01:43:39;2.70;;;2.50;;
72676;SDS011;60755;51.374;10.662;2023-08-06T01:46:06;3.10;;;2.90;;
72676;SDS011;60755;51.374;10.662;2023-08-06T01:48:33;3.10;;;2.90;;
72676;SDS011;60755;51.374;10.662;2023-08-06T01:51:00;2.97;;;2.78;;
72676;SDS011;60755;51.374;10.662;2023-08-06T01:53:28;3.30;;;3.10;;
72676;SDS011;60755;51.374;10.662;2023-08-06T01:55:55;2.97;;;2.72;;
72676;SDS011;60755;51.374;10.662;2023-08-06T01:58:22;2.80;;;2.60;;
72676;SDS011;60755;51.374;10.662;2023-08-06T02:00:49;2.70;;;2.60;;
72676;SDS011;60755;51.374;10.662;2023-08-06T02:03:16;4.78;;;2.60;;
72676;SDS011;60755;51.374;10.662;2023-08-06T02:05:43;7.07;;;2.70;;
72676;SDS011;60755;51.374;10.662;2023-08-06T02:08:11;2.80;;;2.70;;
72676;SDS011;60755;51.374;10.662;2023-08-06T02:10:39;2.87;;;2.77;;
72676;SDS011;60755;51.374;10.662;2023-08-06T02:13:07;2.60;;;2.50;;
72676;SDS011;60755;51.374;10.662;2023-08-06T02:15:35;2.60;;;2.50;;
72676;SDS011;60755;51.374;10.662;2023-08-06T02:18:08;2.60;;;2.50;;
72676;SDS011;60755;51.374;10.662;2023-08-06T02:20:35;2.60;;;2.50;;
72676;SDS011;60755;51.374;10.662;2023-08-06T02:23:02;2.50;;;2.40;;
72676;SDS011;60755;51.374;10.662;2023-08-06T02:25:28;2.63;;;2.53;;
72676;SDS011;60755;51.374;10.662;2023-08-06T02:27:57;2.60;;;2.40;;
72676;SDS011;60755;51.374;10.662;2023-08-06T02:30:24;2.97;;;2.70;;
72676;SDS011;60755;51.374;10.662;2023-08-06T02:32:51;2.60;;;2.50;;
72676;SDS011;60755;51.374;10.662;2023-08-06T02:35:18;2.80;;;2.60;;
72676;SDS011;60755;51.374;10.662;2023-08-06T02:37:45;4.25;;;2.60;;
72676;SDS011;60755;51.374;10.662;2023-08-06T02:40:12;2.60;;;2.50;;
72676;SDS011;60755;51.374;10.662;2023-08-06T02:42:39;6.47;;;2.60;;
72676;SDS011;60755;51.374;10.662;2023-08-06T02:45:08;2.28;;;2.17;;
72676;SDS011;60755;51.374;10.662;2023-08-06T02:47:35;2.50;;;2.40;;
72676;SDS011;60755;51.374;10.662;2023-08-06T02:50:02;2.42;;;2.25;;
72676;SDS011;60755;51.374;10.662;2023-08-06T02:52:30;2.30;;;2.20;;
72676;SDS011;60755;51.374;10.662;2023-08-06T02:54:57;2.47;;;2.35;;
72676;SDS011;60755;51.374;10.662;2023-08-06T02:57:26;4.82;;;2.70;;
72676;SDS011;60755;51.374;10.662;2023-08-06T02:59:54;3.95;;;3.47;;
72676;SDS011;60755;51.374;10.662;2023-08-06T03:02:24;3.42;;;3.00;;
72676;SDS011;60755;51.374;10.662;2023-08-06T03:05:02;4.43;;;3.40;;
72676;SDS011;60755;51.374;10.662;2023-08-06T03:07:33;4.35;;;3.75;;
72676;SDS011;60755;51.374;10.662;2023-08-06T03:10:08;3.85;;;3.65;;
72676;SDS011;60755;51.374;10.662;2023-08-06T03:12:36;4.50;;;3.92;;
72676;SDS011;60755;51.374;10.662;2023-08-06T03:15:04;3.93;;;3.70;;
72676;SDS011;60755;51.374;10.662;2023-08-06T03:17:33;4.40;;;4.10;;
72676;SDS011;60755;51.374;10.662;2023-08-06T03:20:02;4.23;;;3.93;;
72676;SDS011;60755;51.374;10.662;2023-08-06T03:22:30;4.43;;;4.10;;
72676;SDS011;60755;51.374;10.662;2023-08-06T03:24:57;5.13;;;4.83;;
72676;SDS011;60755;51.374;10.662;2023-08-06T03:27:25;5.13;;;4.72;;
72676;SDS011;60755;51.374;10.662;2023-08-06T03:29:52;6.73;;;4.80;;
72676;SDS011;60755;51.374;10.662;2023-08-06T03:32:21;5.60;;;5.20;;
72676;SDS011;60755;51.374;10.662;2023-08-06T03:34:50;5.35;;;5.00;;
72676;SDS011;60755;51.374;10.662;2023-08-06T03:37:19;5.50;;;5.03;;
72676;SDS011;60755;51.374;10.662;2023-08-06T03:39:46;5.47;;;5.07;;
72676;SDS011;60755;51.374;10.662;2023-08-06T03:42:13;5.87;;;5.27;;
72676;SDS011;60755;51.374;10.662;2023-08-06T03:44:40;15.75;;;6.18;;
72676;SDS011;60755;51.374;10.662;2023-08-06T03:47:08;4.97;;;4.57;;
72676;SDS011;60755;51.374;10.662;2023-08-06T03:49:36;5.38;;;4.85;;
72676;SDS011;60755;51.374;10.662;2023-08-06T03:52:05;8.30;;;5.72;;
72676;SDS011;60755;51.374;10.662;2023-08-06T03:54:33;5.28;;;4.88;;
72676;SDS011;60755;51.374;10.662;2023-08-06T03:57:01;4.93;;;4.63;;
72676;SDS011;60755;51.374;10.662;2023-08-06T03:59:28;5.57;;;5.07;;
72676;SDS011;60755;51.374;10.662;2023-08-06T04:01:56;5.43;;;4.93;;
72676;SDS011;60755;51.374;10.662;2023-08-06T04:04:23;5.70;;;5.20;;
72676;SDS011;60755;51.374;10.662;2023-08-06T04:06:50;5.05;;;4.70;;
72676;SDS011;60755;51.374;10.662;2023-08-06T04:09:18;4.75;;;4.40;;
72676;SDS011;60755;51.374;10.662;2023-08-06T04:11:45;5.70;;;5.30;;
72676;SDS011;60755;51.374;10.662;2023-08-06T04:14:12;4.70;;;4.40;;
72676;SDS011;60755;51.374;10.662;2023-08-06T04:16:39;5.35;;;4.80;;
72676;SDS011;60755;51.374;10.662;2023-08-06T04:19:07;5.10;;;4.60;;
72676;SDS011;60755;51.374;10.662;2023-08-06T04:21:34;5.15;;;4.75;;
72676;SDS011;60755;51.374;10.662;2023-08-06T04:24:01;4.85;;;4.43;;
72676;SDS011;60755;51.374;10.662;2023-08-06T04:26:29;4.72;;;4.43;;
72676;SDS011;60755;51.374;10.662;2023-08-06T04:28:56;7.43;;;5.10;;
72676;SDS011;60755;51.374;10.662;2023-08-06T04:31:23;4.63;;;4.30;;
72676;SDS011;60755;51.374;10.662;2023-08-06T04:33:50;4.88;;;4.28;;
72676;SDS011;60755;51.374;10.662;2023-08-06T04:36:17;4.55;;;4.22;;
72676;SDS011;60755;51.374;10.662;2023-08-06T04:38:44;5.22;;;4.50;;
72676;SDS011;60755;51.374;10.662;2023-08-06T04:41:14;6.10;;;4.75;;
72676;SDS011;60755;51.374;10.662;2023-08-06T04:43:43;5.05;;;4.15;;
72676;SDS011;60755;51.374;10.662;2023-08-06T04:46:10;4.80;;;4.50;;
72676;SDS011;60755;51.374;10.662;2023-08-06T04:48:37;5.55;;;4.47;;
72676;SDS011;60755;51.374;10.662;2023-08-06T04:51:04;7.43;;;4.90;;
72676;SDS011;60755;51.374;10.662;2023-08-06T04:53:31;5.53;;;4.20;;
72676;SDS011;60755;51.374;10.662;2023-08-06T04:55:58;5.05;;;4.57;;
72676;SDS011;60755;51.374;10.662;2023-08-06T04:58:25;5.25;;;4.85;;
72676;SDS011;60755;51.374;10.662;2023-08-06T05:00:55;4.97;;;4.68;;
72676;SDS011;60755;51.374;10.662;2023-08-06T05:03:22;5.97;;;4.43;;
72676;SDS011;60755;51.374;10.662;2023-08-06T05:05:49;4.45;;;4.15;;
72676;SDS011;60755;51.374;10.662;2023-08-06T05:08:16;5.03;;;4.60;;
72676;SDS011;60755;51.374;10.662;2023-08-06T05:10:43;5.75;;;5.15;;
72676;SDS011;60755;51.374;10.662;2023-08-06T05:13:11;4.72;;;4.43;;
72676;SDS011;60755;51.374;10.662;2023-08-06T05:15:38;5.53;;;5.03;;
72676;SDS011;60755;51.374;10.662;2023-08-06T05:18:09;4.95;;;4.55;;
72676;SDS011;60755;51.374;10.662;2023-08-06T05:20:37;4.63;;;4.22;;
72676;SDS011;60755;51.374;10.662;2023-08-06T05:23:04;5.30;;;4.43;;
72676;SDS011;60755;51.374;10.662;2023-08-06T05:25:31;5.00;;;4.50;;
72676;SDS011;60755;51.374;10.662;2023-08-06T05:27:58;4.70;;;4.40;;
72676;SDS011;60755;51.374;10.662;2023-08-06T05:30:27;4.60;;;4.30;;
72676;SDS011;60755;51.374;10.662;2023-08-06T05:32:53;5.93;;;4.15;;
72676;SDS011;60755;51.374;10.662;2023-08-06T05:35:22;5.05;;;4.65;;
72676;SDS011;60755;51.374;10.662;2023-08-06T05:37:49;4.65;;;4.30;;
72676;SDS011;60755;51.374;10.662;2023-08-06T05:40:16;5.03;;;4.00;;
72676;SDS011;60755;51.374;10.662;2023-08-06T05:42:43;5.05;;;4.22;;
72676;SDS011;60755;51.374;10.662;2023-08-06T05:45:10;4.90;;;4.57;;
72676;SDS011;60755;51.374;10.662;2023-08-06T05:47:37;4.55;;;4.15;;
72676;SDS011;60755;51.374;10.662;2023-08-06T05:50:04;4.00;;;3.80;;
72676;SDS011;60755;51.374;10.662;2023-08-06T05:52:34;3.78;;;3.55;;
72676;SDS011;60755;51.374;10.662;2023-08-06T05:55:01;4.57;;;4.28;;
72676;SDS011;60755;51.374;10.662;2023-08-06T05:57:27;5.05;;;4.00;;
72676;SDS011;60755;51.374;10.662;2023-08-06T05:59:54;4.13;;;3.92;;
72676;SDS011;60755;51.374;10.662;2023-08-06T06:02:22;4.85;;;4.55;;
72676;SDS011;60755;51.374;10.662;2023-08-06T06:04:49;3.78;;;3.58;;
72676;SDS011;60755;51.374;10.662;2023-08-06T06:07:16;4.28;;;4.00;;
72676;SDS011;60755;51.374;10.662;2023-08-06T06:09:44;3.60;;;3.50;;
72676;SDS011;60755;51.374;10.662;2023-08-06T06:12:11;3.92;;;3.63;;
72676;SDS011;60755;51.374;10.662;2023-08-06T06:14:38;4.07;;;3.80;;
72676;SDS011;60755;51.374;10.662;2023-08-06T06:17:05;3.65;;;3.40;;
72676;SDS011;60755;51.374;10.662;2023-08-06T06:19:32;3.13;;;3.03;;
72676;SDS011;60755;51.374;10.662;2023-08-06T06:21:59;3.10;;;2.97;;
72676;SDS011;60755;51.374;10.662;2023-08-06T06:24:26;2.97;;;2.78;;
72676;SDS011;60755;51.374;10.662;2023-08-06T06:26:54;3.50;;;2.88;;
72676;SDS011;60755;51.374;10.662;2023-08-06T06:29:21;2.70;;;2.50;;
72676;SDS011;60755;51.374;10.662;2023-08-06T06:31:48;4.18;;;2.97;;
72676;SDS011;60755;51.374;10.662;2023-08-06T06:34:15;2.70;;;2.60;;
72676;SDS011;60755;51.374;10.662;2023-08-06T06:36:42;3.30;;;2.95;;
72676;SDS011;60755;51.374;10.662;2023-08-06T06:39:09;2.90;;;2.60;;
72676;SDS011;60755;51.374;10.662;2023-08-06T06:41:36;2.58;;;2.38;;
72676;SDS011;60755;51.374;10.662;2023-08-06T06:44:12;2.70;;;2.60;;
72676;SDS011;60755;51.374;10.662;2023-08-06T06:46:40;2.45;;;2.20;;
72676;SDS011;60755;51.374;10.662;2023-08-06T06:49:07;2.00;;;2.00;;
72676;SDS011;60755;51.374;10.662;2023-08-06T06:51:34;2.10;;;2.10;;
72676;SDS011;60755;51.374;10.662;2023-08-06T06:54:01;2.08;;;2.05;;
72676;SDS011;60755;51.374;10.662;2023-08-06T06:56:28;2.30;;;2.20;;
72676;SDS011;60755;51.374;10.662;2023-08-06T06:58:55;2.00;;;1.90;;
72676;SDS011;60755;51.374;10.662;2023-08-06T07:01:23;2.13;;;2.08;;
72676;SDS011;60755;51.374;10.662;2023-08-06T07:03:50;2.30;;;2.20;;
72676;SDS011;60755;51.374;10.662;2023-08-06T07:06:17;2.00;;;2.00;;
72676;SDS011;60755;51.374;10.662;2023-08-06T07:08:44;1.77;;;1.77;;
72676;SDS011;60755;51.374;10.662;2023-08-06T07:11:11;2.67;;;2.03;;
72676;SDS011;60755;51.374;10.662;2023-08-06T07:13:38;2.35;;;2.13;;
72676;SDS011;60755;51.374;10.662;2023-08-06T07:16:05;5.68;;;2.13;;
72676;SDS011;60755;51.374;10.662;2023-08-06T07:18:33;1.90;;;1.80;;
72676;SDS011;60755;51.374;10.662;2023-08-06T07:21:00;2.22;;;2.13;;
72676;SDS011;60755;51.374;10.662;2023-08-06T07:23:27;2.28;;;2.00;;
72676;SDS011;60755;51.374;10.662;2023-08-06T07:25:54;1.88;;;1.88;;
72676;SDS011;60755;51.374;10.662;2023-08-06T07:28:21;1.98;;;1.90;;
72676;SDS011;60755;51.374;10.662;2023-08-06T07:30:48;2.00;;;1.90;;
72676;SDS011;60755;51.374;10.662;2023-08-06T07:33:16;1.90;;;1.83;;
72676;SDS011;60755;51.374;10.662;2023-08-06T07:35:44;1.75;;;1.75;;
72676;SDS011;60755;51.374;10.662;2023-08-06T07:38:11;2.13;;;2.03;;
72676;SDS011;60755;51.374;10.662;2023-08-06T07:40:38;2.10;;;2.00;;
72676;SDS011;60755;51.374;10.662;2023-08-06T07:43:05;3.22;;;2.17;;
72676;SDS011;60755;51.374;10.662;2023-08-06T07:45:33;1.65;;;1.55;;
72676;SDS011;60755;51.374;10.662;2023-08-06T07:48:01;11.13;;;9.95;;
72676;SDS011;60755;51.374;10.662;2023-08-06T07:50:28;6.32;;;5.82;;
72676;SDS011;60755;51.374;10.662;2023-08-06T07:52:57;5.20;;;4.75;;
72676;SDS011;60755;51.374;10.662;2023-08-06T07:55:24;2.63;;;2.42;;
72676;SDS011;60755;51.374;10.662;2023-08-06T07:57:54;3.13;;;2.30;;
72676;SDS011;60755;51.374;10.662;2023-08-06T08:00:20;5.75;;;2.03;;
72676;SDS011;60755;51.374;10.662;2023-08-06T08:02:49;1.98;;;1.80;;
72676;SDS011;60755;51.374;10.662;2023-08-06T08:05:17;2.55;;;2.00;;
72676;SDS011;60755;51.374;10.662;2023-08-06T08:07:44;1.90;;;1.80;;
72676;SDS011;60755;51.374;10.662;2023-08-06T08:10:12;5.13;;;2.00;;
72676;SDS011;60755;51.374;10.662;2023-08-06T08:12:39;2.20;;;2.00;;
72676;SDS011;60755;51.374;10.662;2023-08-06T08:15:06;2.00;;;1.90;;
72676;SDS011;60755;51.374;10.662;2023-08-06T08:17:33;2.80;;;1.80;;
72676;SDS011;60755;51.374;10.662;2023-08-06T08:20:01;1.95;;;1.83;;
72676;SDS011;60755;51.374;10.662;2023-08-06T08:22:28;1.77;;;1.70;;
72676;SDS011;60755;51.374;10.662;2023-08-06T08:24:55;2.03;;;1.85;;
72676;SDS011;60755;51.374;10.662;2023-08-06T08:27:23;2.22;;;2.00;;
72676;SDS011;60755;51.374;10.662;2023-08-06T08:29:51;5.32;;;2.40;;
72676;SDS011;60755;51.374;10.662;2023-08-06T08:32:18;2.60;;;2.20;;
72676;SDS011;60755;51.374;10.662;2023-08-06T08:34:46;2.30;;;2.20;;
72676;SDS011;60755;51.374;10.662;2023-08-06T08:37:13;5.38;;;1.92;;
72676;SDS011;60755;51.374;10.662;2023-08-06T08:39:40;2.10;;;2.00;;
72676;SDS011;60755;51.374;10.662;2023-08-06T08:42:07;1.67;;;1.67;;
72676;SDS011;60755;51.374;10.662;2023-08-06T08:44:37;2.10;;;2.00;;
72676;SDS011;60755;51.374;10.662;2023-08-06T08:47:05;2.70;;;2.00;;
72676;SDS011;60755;51.374;10.662;2023-08-06T08:49:34;2.10;;;2.00;;
72676;SDS011;60755;51.374;10.662;2023-08-06T08:52:03;1.77;;;1.67;;
72676;SDS011;60755;51.374;10.662;2023-08-06T08:54:31;1.92;;;1.85;;
72676;SDS011;60755;51.374;10.662;2023-08-06T08:56:59;1.70;;;1.70;;
72676;SDS011;60755;51.374;10.662;2023-08-06T08:59:27;2.00;;;1.90;;
72676;SDS011;60755;51.374;10.662;2023-08-06T09:01:56;2.35;;;2.15;;
72676;SDS011;60755;51.374;10.662;2023-08-06T09:04:24;3.45;;;1.80;;
72676;SDS011;60755;51.374;10.662;2023-08-06T09:06:53;1.98;;;1.92;;
72676;SDS011;60755;51.374;10.662;2023-08-06T09:09:25;2.05;;;1.92;;
72676;SDS011;60755;51.374;10.662;2023-08-06T09:11:54;2.05;;;1.95;;
72676;SDS011;60755;51.374;10.662;2023-08-06T09:14:27;1.85;;;1.75;;
72676;SDS011;60755;51.374;10.662;2023-08-06T09:16:55;2.00;;;1.90;;
72676;SDS011;60755;51.374;10.662;2023-08-06T09:19:23;4.45;;;3.72;;
72676;SDS011;60755;51.374;10.662;2023-08-06T09:21:50;2.42;;;2.17;;
72676;SDS011;60755;51.374;10.662;2023-08-06T09:24:18;1.90;;;1.83;;
72676;SDS011;60755;51.374;10.662;2023-08-06T09:26:45;2.05;;;1.60;;
72676;SDS011;60755;51.374;10.662;2023-08-06T09:29:12;1.90;;;1.80;;
72676;SDS011;60755;51.374;10.662;2023-08-06T09:31:40;2.05;;;1.95;;
72676;SDS011;60755;51.374;10.662;2023-08-06T09:34:14;2.20;;;2.00;;
72676;SDS011;60755;51.374;10.662;2023-08-06T09:36:42;4.80;;;1.70;;
72676;SDS011;60755;51.374;10.662;2023-08-06T09:39:12;2.15;;;1.70;;
72676;SDS011;60755;51.374;10.662;2023-08-06T09:41:40;3.63;;;3.20;;
72676;SDS011;60755;51.374;10.662;2023-08-06T09:44:13;1.77;;;1.77;;
72676;SDS011;60755;51.374;10.662;2023-08-06T09:46:43;3.63;;;1.83;;
72676;SDS011;60755;51.374;10.662;2023-08-06T09:49:15;2.50;;;1.77;;
72676;SDS011;60755;51.374;10.662;2023-08-06T09:51:42;1.70;;;1.70;;
72676;SDS011;60755;51.374;10.662;2023-08-06T09:54:10;1.95;;;1.70;;
72676;SDS011;60755;51.374;10.662;2023-08-06T09:56:39;1.80;;;1.70;;
72676;SDS011;60755;51.374;10.662;2023-08-06T09:59:07;2.60;;;2.00;;
72676;SDS011;60755;51.374;10.662;2023-08-06T10:01:35;1.70;;;1.60;;
72676;SDS011;60755;51.374;10.662;2023-08-06T10:04:03;1.85;;;1.65;;
72676;SDS011;60755;51.374;10.662;2023-08-06T10:06:33;1.85;;;1.75;;
72676;SDS011;60755;51.374;10.662;2023-08-06T10:09:01;1.83;;;1.70;;
72676;SDS011;60755;51.374;10.662;2023-08-06T10:11:29;2.40;;;1.73;;
72676;SDS011;60755;51.374;10.662;2023-08-06T10:13:57;4.30;;;1.70;;
72676;SDS011;60755;51.374;10.662;2023-08-06T10:16:29;1.45;;;1.45;;
72676;SDS011;60755;51.374;10.662;2023-08-06T10:18:57;1.80;;;1.70;;
72676;SDS011;60755;51.374;10.662;2023-08-06T10:21:25;1.65;;;1.55;;
72676;SDS011;60755;51.374;10.662;2023-08-06T10:23:56;2.08;;;1.60;;
72676;SDS011;60755;51.374;10.662;2023-08-06T10:26:25;1.50;;;1.50;;
72676;SDS011;60755;51.374;10.662;2023-08-06T10:28:53;1.90;;;1.80;;
72676;SDS011;60755;51.374;10.662;2023-08-06T10:31:20;1.70;;;1.60;;
72676;SDS011;60755;51.374;10.662;2023-08-06T10:34:10;1.92;;;1.80;;
72676;SDS011;60755;51.374;10.662;2023-08-06T10:36:37;1.65;;;1.58;;
72676;SDS011;60755;51.374;10.662;2023-08-06T10:39:06;2.17;;;1.73;;
72676;SDS011;60755;51.374;10.662;2023-08-06T10:41:40;2.28;;;1.60;;
72676;SDS011;60755;51.374;10.662;2023-08-06T10:44:09;1.65;;;1.60;;
72676;SDS011;60755;51.374;10.662;2023-08-06T10:46:37;1.52;;;1.42;;
72676;SDS011;60755;51.374;10.662;2023-08-06T10:49:04;1.30;;;1.30;;
72676;SDS011;60755;51.374;10.662;2023-08-06T10:51:32;1.50;;;1.50;;
72676;SDS011;60755;51.374;10.662;2023-08-06T10:54:00;1.65;;;1.65;;
72676;SDS011;60755;51.374;10.662;2023-08-06T10:56:28;1.80;;;1.70;;
72676;SDS011;60755;51.374;10.662;2023-08-06T10:58:56;4.53;;;1.83;;
72676;SDS011;60755;51.374;10.662;2023-08-06T11:01:24;1.77;;;1.48;;
72676;SDS011;60755;51.374;10.662;2023-08-06T11:03:51;1.58;;;1.58;;
72676;SDS011;60755;51.374;10.662;2023-08-06T11:06:19;2.10;;;2.00;;
72676;SDS011;60755;51.374;10.662;2023-08-06T11:08:47;16.08;;;10.90;;
72676;SDS011;60755;51.374;10.662;2023-08-06T11:11:15;6.72;;;4.78;;
72676;SDS011;60755;51.374;10.662;2023-08-06T11:13:44;2.30;;;1.77;;
72676;SDS011;60755;51.374;10.662;2023-08-06T11:16:12;1.58;;;1.48;;
72676;SDS011;60755;51.374;10.662;2023-08-06T11:18:40;1.60;;;1.50;;
72676;SDS011;60755;51.374;10.662;2023-08-06T11:21:08;4.38;;;1.55;;
72676;SDS011;60755;51.374;10.662;2023-08-06T11:23:35;2.25;;;1.63;;
72676;SDS011;60755;51.374;10.662;2023-08-06T11:26:02;3.47;;;1.48;;
72676;SDS011;60755;51.374;10.662;2023-08-06T11:28:30;2.67;;;2.47;;
72676;SDS011;60755;51.374;10.662;2023-08-06T11:30:58;1.65;;;1.55;;
72676;SDS011;60755;51.374;10.662;2023-08-06T11:33:27;2.20;;;1.55;;
72676;SDS011;60755;51.374;10.662;2023-08-06T11:35:55;2.03;;;1.80;;
72676;SDS011;60755;51.374;10.662;2023-08-06T11:38:24;2.25;;;1.40;;
72676;SDS011;60755;51.374;10.662;2023-08-06T11:40:51;1.90;;;1.42;;
72676;SDS011;60755;51.374;10.662;2023-08-06T11:43:19;1.60;;;1.50;;
72676;SDS011;60755;51.374;10.662;2023-08-06T11:45:48;2.42;;;1.60;;
72676;SDS011;60755;51.374;10.662;2023-08-06T11:48:17;1.40;;;1.40;;
72676;SDS011;60755;51.374;10.662;2023-08-06T11:50:44;1.60;;;1.60;;
72676;SDS011;60755;51.374;10.662;2023-08-06T11:53:12;2.92;;;1.70;;
72676;SDS011;60755;51.374;10.662;2023-08-06T11:55:40;1.60;;;1.60;;
72676;SDS011;60755;51.374;10.662;2023-08-06T11:58:08;2.08;;;1.67;;
72676;SDS011;60755;51.374;10.662;2023-08-06T12:00:36;1.90;;;1.80;;
72676;SDS011;60755;51.374;10.662;2023-08-06T12:03:04;2.17;;;1.77;;
72676;SDS011;60755;51.374;10.662;2023-08-06T12:05:33;1.85;;;1.73;;
72676;SDS011;60755;51.374;10.662;2023-08-06T12:08:01;1.63;;;1.52;;
72676;SDS011;60755;51.374;10.662;2023-08-06T12:10:31;1.60;;;1.55;;
72676;SDS011;60755;51.374;10.662;2023-08-06T12:12:59;1.75;;;1.65;;
72676;SDS011;60755;51.374;10.662;2023-08-06T12:15:26;1.73;;;1.52;;
72676;SDS011;60755;51.374;10.662;2023-08-06T12:17:54;1.60;;;1.50;;
72676;SDS011;60755;51.374;10.662;2023-08-06T12:20:21;1.80;;;1.70;;
72676;SDS011;60755;51.374;10.662;2023-08-06T12:22:50;1.65;;;1.60;;
72676;SDS011;60755;51.374;10.662;2023-08-06T12:25:17;2.15;;;1.58;;
72676;SDS011;60755;51.374;10.662;2023-08-06T12:27:44;1.98;;;1.88;;
72676;SDS011;60755;51.374;10.662;2023-08-06T12:30:12;1.58;;;1.50;;
72676;SDS011;60755;51.374;10.662;2023-08-06T12:32:40;1.70;;;1.70;;
72676;SDS011;60755;51.374;10.662;2023-08-06T12:35:07;1.92;;;1.83;;
72676;SDS011;60755;51.374;10.662;2023-08-06T12:37:35;3.22;;;1.55;;
72676;SDS011;60755;51.374;10.662;2023-08-06T12:40:06;2.80;;;1.70;;
72676;SDS011;60755;51.374;10.662;2023-08-06T12:42:33;1.75;;;1.65;;
72676;SDS011;60755;51.374;10.662;2023-08-06T12:45:01;1.85;;;1.65;;
72676;SDS011;60755;51.374;10.662;2023-08-06T12:47:28;1.65;;;1.65;;
72676;SDS011;60755;51.374;10.662;2023-08-06T12:49:55;1.60;;;1.60;;
72676;SDS011;60755;51.374;10.662;2023-08-06T12:52:23;1.75;;;1.65;;
72676;SDS011;60755;51.374;10.662;2023-08-06T12:54:50;1.80;;;1.70;;
72676;SDS011;60755;51.374;10.662;2023-08-06T12:57:19;1.60;;;1.50;;
72676;SDS011;60755;51.374;10.662;2023-08-06T12:59:46;2.25;;;1.80;;
72676;SDS011;60755;51.374;10.662;2023-08-06T13:02:13;1.60;;;1.60;;
72676;SDS011;60755;51.374;10.662;2023-08-06T13:04:41;1.67;;;1.58;;
72676;SDS011;60755;51.374;10.662;2023-08-06T13:07:08;2.55;;;1.88;;
72676;SDS011;60755;51.374;10.662;2023-08-06T13:09:35;1.73;;;1.63;;
72676;SDS011;60755;51.374;10.662;2023-08-06T13:12:02;2.03;;;1.90;;
72676;SDS011;60755;51.374;10.662;2023-08-06T13:14:32;1.50;;;1.50;;
72676;SDS011;60755;51.374;10.662;2023-08-06T13:17:00;1.80;;;1.70;;
72676;SDS011;60755;51.374;10.662;2023-08-06T13:19:27;1.55;;;1.55;;
72676;SDS011;60755;51.374;10.662;2023-08-06T13:21:59;1.55;;;1.55;;
72676;SDS011;60755;51.374;10.662;2023-08-06T13:24:28;1.88;;;1.60;;
72676;SDS011;60755;51.374;10.662;2023-08-06T13:26:55;1.50;;;1.50;;
72676;SDS011;60755;51.374;10.662;2023-08-06T13:29:23;1.60;;;1.50;;
72676;SDS011;60755;51.374;10.662;2023-08-06T13:31:53;1.60;;;1.50;;
72676;SDS011;60755;51.374;10.662;2023-08-06T13:34:20;1.40;;;1.40;;
72676;SDS011;60755;51.374;10.662;2023-08-06T13:36:47;1.73;;;1.70;;
72676;SDS011;60755;51.374;10.662;2023-08-06T13:39:15;1.40;;;1.40;;
72676;SDS011;60755;51.374;10.662;2023-08-06T13:41:43;1.75;;;1.65;;
72676;SDS011;60755;51.374;10.662;2023-08-06T13:44:11;2.38;;;1.70;;
72676;SDS011;60755;51.374;10.662;2023-08-06T13:46:40;1.40;;;1.30;;
72676;SDS011;60755;51.374;10.662;2023-08-06T13:49:09;2.25;;;1.48;;
72676;SDS011;60755;51.374;10.662;2023-08-06T13:51:36;1.20;;;1.20;;
72676;SDS011;60755;51.374;10.662;2023-08-06T13:54:04;1.30;;;1.30;;
72676;SDS011;60755;51.374;10.662;2023-08-06T13:56:32;1.67;;;1.30;;
72676;SDS011;60755;51.374;10.662;2023-08-06T13:59:00;1.60;;;1.60;;
72676;SDS011;60755;51.374;10.662;2023-08-06T14:01:27;1.60;;;1.50;;
72676;SDS011;60755;51.374;10.662;2023-08-06T14:03:54;1.40;;;1.30;;
72676;SDS011;60755;51.374;10.662;2023-08-06T14:06:23;1.95;;;1.40;;
72676;SDS011;60755;51.374;10.662;2023-08-06T14:08:50;1.40;;;1.40;;
72676;SDS011;60755;51.374;10.662;2023-08-06T14:11:17;1.60;;;1.60;;
72676;SDS011;60755;51.374;10.662;2023-08-06T14:13:44;1.30;;;1.30;;
72676;SDS011;60755;51.374;10.662;2023-08-06T14:16:12;1.83;;;1.38;;
72676;SDS011;60755;51.374;10.662;2023-08-06T14:18:39;1.35;;;1.35;;
72676;SDS011;60755;51.374;10.662;2023-08-06T14:21:07;1.42;;;1.40;;
72676;SDS011;60755;51.374;10.662;2023-08-06T14:23:35;1.55;;;1.45;;
72676;SDS011;60755;51.374;10.662;2023-08-06T14:26:02;1.88;;;1.77;;
72676;SDS011;60755;51.374;10.662;2023-08-06T14:28:30;1.73;;;1.63;;
72676;SDS011;60755;51.374;10.662;2023-08-06T14:30:57;1.55;;;1.55;;
72676;SDS011;60755;51.374;10.662;2023-08-06T14:33:24;1.70;;;1.60;;
72676;SDS011;60755;51.374;10.662;2023-08-06T14:35:51;1.75;;;1.65;;
72676;SDS011;60755;51.374;10.662;2023-08-06T14:38:19;1.60;;;1.50;;